X  Schließen METAR Luftfahrt Wetterdaten     EDTY Adolf Würth Airport
Temperatur
6°C Temperatur
5°C Taupunkt
93% Feuchtigkeit



Wind
24 km/h
15 MPS
7 m/s
13 kts



280°
West
Aktuelle Wetterlage

bewölkt bewölkt
Luftdruck 1026.92 (hPa) - 30.32 (inHg)
Sichtweite 6.2 (Meile) - 10 (km)
Flughafen
Flughafen Code EDTY

Position : Adolf Würth Airport
Entfernung: 21 (km)

Metar:
EDTY 032220Z AUTO 28013KT 9999 // OVC008/// 06/05 Q1027

Zeit: 03-02-2023 23:20 CET